createdAt,value
2019-02-04T00:00:55.058Z,83.36
2019-02-04T00:01:53.950Z,83.36
2019-02-04T00:02:52.598Z,83.45
2019-02-04T00:03:51.160Z,83.45
2019-02-04T00:04:49.704Z,84.11
2019-02-04T00:05:48.297Z,83.54
2019-02-04T00:06:46.835Z,83.54
2019-02-04T00:07:45.395Z,83.73
2019-02-04T00:08:44.128Z,83.83
2019-02-04T00:09:42.695Z,83.73
2019-02-04T00:10:41.254Z,83.73
2019-02-04T00:11:39.943Z,83.54
2019-02-04T00:12:38.553Z,84.21
2019-02-04T00:13:37.104Z,84.21
2019-02-04T00:14:35.804Z,83.73
2019-02-04T00:15:34.353Z,83.73
2019-02-04T00:16:40.528Z,83.26
2019-02-04T00:17:31.452Z,83.26
2019-02-04T00:18:30.304Z,83.3
2019-02-04T00:19:28.870Z,82.92
2019-02-04T00:20:27.417Z,83.2
2019-02-04T00:21:26.238Z,83.01
2019-02-04T00:22:24.774Z,83.2
2019-02-04T00:23:23.359Z,83.01
2019-02-04T00:24:21.930Z,83.2
2019-02-04T00:25:21.608Z,83.68
2019-02-04T00:26:19.055Z,83.07
2019-02-04T00:27:17.628Z,83.11
2019-02-04T00:28:16.176Z,82.92
2019-02-04T00:29:14.742Z,83.39
2019-02-04T00:30:13.294Z,83.2
2019-02-04T00:31:11.869Z,83.49
2019-02-04T00:32:10.508Z,83.59
2019-02-04T00:33:09.051Z,82.92
2019-02-04T00:34:07.581Z,83.07
2019-02-04T00:35:06.141Z,83.54
2019-02-04T00:36:04.692Z,83.07
2019-02-04T00:37:03.263Z,82.97
2019-02-04T00:38:01.984Z,82.78
2019-02-04T00:39:02.493Z,83.64
2019-02-04T00:39:59.147Z,83.16
2019-02-04T00:40:57.717Z,83.26
2019-02-04T00:41:56.348Z,82.88
2019-02-04T00:42:54.897Z,83.16
2019-02-04T00:43:53.433Z,83.45
2019-02-04T00:44:52.047Z,83.26
2019-02-04T00:45:50.599Z,82.88
2019-02-04T00:46:52.115Z,82.92
2019-02-04T00:47:47.852Z,83.64
2019-02-04T00:48:46.547Z,83.54
2019-02-04T00:49:45.122Z,82.97
2019-02-04T00:50:43.715Z,83.26
2019-02-04T00:51:42.403Z,83.26
2019-02-04T00:52:40.963Z,83.16
2019-02-04T00:53:39.511Z,83.36
2019-02-04T00:54:38.100Z,82.88
2019-02-04T00:55:36.654Z,83.26
2019-02-04T00:56:35.181Z,83.73
2019-02-04T00:57:33.797Z,83.73
2019-02-04T00:58:32.410Z,83.64
2019-02-04T00:59:30.971Z,83.64
2019-02-04T01:00:29.835Z,83.36
2019-02-04T01:01:28.605Z,83.36
2019-02-04T01:02:27.143Z,83.36
2019-02-04T01:03:25.728Z,83.16
2019-02-04T01:04:24.476Z,82.88
2019-02-04T01:05:23.008Z,83.83
2019-02-04T01:06:21.762Z,83.07
2019-02-04T01:07:20.394Z,83.26
2019-02-04T01:08:18.935Z,83.26
2019-02-04T01:09:17.510Z,83.16
2019-02-04T01:10:16.128Z,83.16
2019-02-04T01:11:14.753Z,83.26
2019-02-04T01:12:13.316Z,83.16
2019-02-04T01:13:11.873Z,83.07
2019-02-04T01:14:10.473Z,83.54
2019-02-04T01:15:09.009Z,82.97
2019-02-04T01:16:07.823Z,83.26
2019-02-04T01:17:06.505Z,83.83
2019-02-04T01:18:05.089Z,83.26
2019-02-04T01:19:03.722Z,83.16
2019-02-04T01:20:02.379Z,83.73
2019-02-04T01:21:01.096Z,83.26
2019-02-04T01:21:59.944Z,83.26
2019-02-04T01:22:58.607Z,83.64
2019-02-04T01:23:57.136Z,84.01
2019-02-04T01:24:55.739Z,83.83
2019-02-04T01:25:54.320Z,83.16
2019-02-04T01:26:52.871Z,83.16
2019-02-04T01:27:51.390Z,83.26
2019-02-04T01:28:50.007Z,83.83
2019-02-04T01:29:48.558Z,83.92
2019-02-04T01:30:47.101Z,83.45
2019-02-04T01:31:45.658Z,84.49
2019-02-04T01:32:44.195Z,84.21
2019-02-04T01:33:42.732Z,84.3
2019-02-04T01:34:41.287Z,84.21
2019-02-04T01:35:40.178Z,84.11
2019-02-04T01:36:38.725Z,84.49
2019-02-04T01:37:37.283Z,84.3
2019-02-04T01:38:36.028Z,84.49
2019-02-04T01:39:34.629Z,84.01
2019-02-04T01:40:33.176Z,84.4
2019-02-04T01:41:33.232Z,84.01
2019-02-04T01:42:30.371Z,84.01
2019-02-04T01:43:28.924Z,84.11
2019-02-04T01:44:27.516Z,84.17
2019-02-04T01:45:26.407Z,84.78
2019-02-04T01:46:25.040Z,84.11
2019-02-04T01:47:23.678Z,83.97
2019-02-04T01:48:22.371Z,84.21
2019-02-04T01:49:20.919Z,84.3
2019-02-04T01:50:19.451Z,84.21
2019-02-04T01:51:18.019Z,84.3
2019-02-04T01:52:16.551Z,84.4
2019-02-04T01:53:15.116Z,84.01
2019-02-04T01:54:13.632Z,84.17
2019-02-04T01:55:12.241Z,85.11
2019-02-04T01:56:10.794Z,84.83
2019-02-04T01:57:09.355Z,84.83
2019-02-04T01:58:08.025Z,85.02
2019-02-04T01:59:06.735Z,85.11
2019-02-04T02:00:05.281Z,85.3
2019-02-04T02:01:03.912Z,85.11
2019-02-04T02:02:02.529Z,85.78
2019-02-04T02:03:01.085Z,85.68
2019-02-04T02:03:59.653Z,85.21
2019-02-04T02:04:58.217Z,85.3
2019-02-04T02:05:56.772Z,85.11
2019-02-04T02:06:55.331Z,84.74
2019-02-04T02:07:53.894Z,84.74
2019-02-04T02:08:52.600Z,84.83
2019-02-04T02:09:51.171Z,84.83
2019-02-04T02:10:49.759Z,85.3
2019-02-04T02:11:48.513Z,85.11
2019-02-04T02:12:47.073Z,85.78
2019-02-04T02:13:45.702Z,85.21
2019-02-04T02:14:44.281Z,85.02
2019-02-04T02:15:42.851Z,85.02
2019-02-04T02:16:41.433Z,84.92
2019-02-04T02:17:39.969Z,85.49
2019-02-04T02:18:38.826Z,85.11
2019-02-04T02:19:37.401Z,85.59
2019-02-04T02:20:36.212Z,85.87
2019-02-04T02:21:34.912Z,85.68
2019-02-04T02:22:33.462Z,86.07
2019-02-04T02:23:32.055Z,86.16
2019-02-04T02:24:30.781Z,86.44
2019-02-04T02:25:29.345Z,86.25
2019-02-04T02:26:28.007Z,86.54
2019-02-04T02:27:26.607Z,86.91
2019-02-04T02:28:25.220Z,86.35
2019-02-04T02:29:23.760Z,86.35
2019-02-04T02:30:22.703Z,86.25
2019-02-04T02:31:21.246Z,86.44
2019-02-04T02:32:19.912Z,86.44
2019-02-04T02:33:18.490Z,86.25
2019-02-04T02:34:17.047Z,86.97
2019-02-04T02:35:15.680Z,86.87
2019-02-04T02:36:14.494Z,87.06
2019-02-04T02:37:13.020Z,87.06
2019-02-04T02:38:11.592Z,87.11
2019-02-04T02:39:10.164Z,86.97
2019-02-04T02:40:08.716Z,87.25
2019-02-04T02:41:07.289Z,87.16
2019-02-04T02:42:05.853Z,87.35
2019-02-04T02:43:04.393Z,87.73
2019-02-04T02:44:02.967Z,87.77
2019-02-04T02:45:01.518Z,87.45
2019-02-04T02:46:00.317Z,87.11
2019-02-04T02:46:58.884Z,87.01
2019-02-04T02:47:57.412Z,87.01
2019-02-04T02:48:56.061Z,87.11
2019-02-04T02:49:54.627Z,86.78
2019-02-04T02:50:53.184Z,87.06
2019-02-04T02:51:51.739Z,86.97
2019-02-04T02:52:50.435Z,86.78
2019-02-04T02:53:48.974Z,87.35
2019-02-04T02:54:47.517Z,88.1
2019-02-04T02:55:46.067Z,87.92
2019-02-04T02:56:44.616Z,87.92
2019-02-04T02:57:43.153Z,88.01
2019-02-04T02:58:41.790Z,87.63
2019-02-04T02:59:40.458Z,87.92
2019-02-04T03:00:38.995Z,87.63
2019-02-04T03:01:37.537Z,87.92
2019-02-04T03:02:36.387Z,88.2
2019-02-04T03:03:34.917Z,88.1
2019-02-04T03:04:33.458Z,88.29
2019-02-04T03:05:32.129Z,88.77
2019-02-04T03:06:30.667Z,88.77
2019-02-04T03:07:29.208Z,88.68
2019-02-04T03:08:27.747Z,88.1
2019-02-04T03:09:26.277Z,88.48
2019-02-04T03:10:24.824Z,88.58
2019-02-04T03:11:23.366Z,88.68
2019-02-04T03:12:21.905Z,88.77
2019-02-04T03:13:20.581Z,88.68
2019-02-04T03:14:19.130Z,88.77
2019-02-04T03:15:17.792Z,89.43
2019-02-04T03:16:16.538Z,89.06
2019-02-04T03:17:15.096Z,89.43
2019-02-04T03:18:13.630Z,88.58
2019-02-04T03:19:12.253Z,88.77
2019-02-04T03:20:10.862Z,88.96
2019-02-04T03:21:09.403Z,88.58
2019-02-04T03:22:07.966Z,88.87
2019-02-04T03:23:06.546Z,89.06
2019-02-04T03:24:05.228Z,89.43
2019-02-04T03:25:03.914Z,90.29
2019-02-04T03:26:02.516Z,90.43
2019-02-04T03:27:01.058Z,90.53
2019-02-04T03:27:59.783Z,90.53
2019-02-04T03:28:58.467Z,90.53
2019-02-04T03:29:57.000Z,90.15
2019-02-04T03:30:55.551Z,90.53
2019-02-04T03:31:54.129Z,90.15
2019-02-04T03:32:52.701Z,90
2019-02-04T03:33:51.253Z,90.29
2019-02-04T03:34:49.866Z,90.15
2019-02-04T03:35:48.550Z,89.81
2019-02-04T03:36:47.089Z,90.15
2019-02-04T03:37:45.720Z,90.19
2019-02-04T03:38:44.527Z,90.29
2019-02-04T03:39:43.062Z,89.72
2019-02-04T03:40:41.599Z,89.25
2019-02-04T03:41:40.180Z,89.34
2019-02-04T03:42:38.742Z,89.06
2019-02-04T03:43:37.269Z,89.43
2019-02-04T03:44:35.802Z,89.06
2019-02-04T03:45:34.323Z,88.87
2019-02-04T03:46:32.864Z,89.25
2019-02-04T03:47:31.405Z,89.81
2019-02-04T03:48:29.951Z,89.62
2019-02-04T03:49:28.502Z,89.43
2019-02-04T03:50:27.121Z,89.06
2019-02-04T03:51:25.672Z,89.34
2019-02-04T03:52:24.284Z,89.06
2019-02-04T03:53:22.819Z,89.15
2019-02-04T03:54:21.376Z,88.77
2019-02-04T03:55:20.066Z,89.43
2019-02-04T03:56:18.719Z,88.87
2019-02-04T03:57:17.250Z,89.25
2019-02-04T03:58:15.856Z,89.53
2019-02-04T03:59:14.464Z,89.77
2019-02-04T04:00:12.994Z,90.62
2019-02-04T04:01:11.570Z,90.43
2019-02-04T04:02:10.138Z,90.15
2019-02-04T04:03:08.651Z,90.43
2019-02-04T04:04:07.225Z,90.43
2019-02-04T04:05:05.776Z,90.57
2019-02-04T04:06:04.361Z,89.81
2019-02-04T04:07:02.911Z,90.1
2019-02-04T04:08:01.465Z,90.1
2019-02-04T04:09:00.236Z,89.91
2019-02-04T04:09:58.788Z,90.15
2019-02-04T04:10:57.328Z,89.72
2019-02-04T04:11:56.008Z,90.38
2019-02-04T04:12:54.684Z,89.62
2019-02-04T04:13:53.226Z,90
2019-02-04T04:14:51.767Z,89.72
2019-02-04T04:15:50.424Z,90.1
2019-02-04T04:16:48.975Z,90.29
2019-02-04T04:17:47.532Z,90
2019-02-04T04:18:46.256Z,89.96
2019-02-04T04:19:44.815Z,90.24
2019-02-04T04:20:43.379Z,91.19
2019-02-04T04:21:41.976Z,91.38
2019-02-04T04:22:40.655Z,91.47
2019-02-04T04:23:39.215Z,91.76
2019-02-04T04:24:37.816Z,91.38
2019-02-04T04:25:36.479Z,91.28
2019-02-04T04:26:35.027Z,90.72
2019-02-04T04:27:34.133Z,90.15
2019-02-04T04:28:32.726Z,90.38
2019-02-04T04:29:31.282Z,90.15
2019-02-04T04:30:29.874Z,90.05
2019-02-04T04:31:28.514Z,90.81
2019-02-04T04:32:29.893Z,91.38
2019-02-04T04:33:25.654Z,90.53
2019-02-04T04:34:24.203Z,91.19
2019-02-04T04:35:22.883Z,91.38
2019-02-04T04:36:21.293Z,91.85
2019-02-04T04:37:19.852Z,92.04
2019-02-04T04:38:18.439Z,92.04
2019-02-04T04:39:17.014Z,92.52
2019-02-04T04:40:15.604Z,93.23
2019-02-04T04:41:14.247Z,92.9
2019-02-04T04:42:12.811Z,93.08
2019-02-04T04:43:11.380Z,92.8
2019-02-04T04:44:10.132Z,93.18
2019-02-04T04:45:08.773Z,93.18
2019-02-04T04:46:07.323Z,92.42
2019-02-04T04:47:05.882Z,93.18
2019-02-04T04:48:04.450Z,92.76
2019-02-04T04:49:02.998Z,92.9
2019-02-04T04:50:01.545Z,93.18
2019-02-04T04:51:00.082Z,92.85
2019-02-04T04:51:58.635Z,93.42
2019-02-04T04:52:57.144Z,94.18
2019-02-04T04:53:55.994Z,94.46
2019-02-04T04:54:55.386Z,93.65
2019-02-04T04:55:54.090Z,93.08
2019-02-04T04:56:52.744Z,93.04
2019-02-04T04:57:51.288Z,93.08
2019-02-04T04:58:49.888Z,92.52
2019-02-04T04:59:48.557Z,92.71
2019-02-04T05:00:47.121Z,92.71
2019-02-04T05:01:45.641Z,92.8
2019-02-04T05:02:44.191Z,92.94
2019-02-04T05:03:42.755Z,93.37
2019-02-04T05:04:41.286Z,92.9
2019-02-04T05:05:40.128Z,93.18
2019-02-04T05:06:38.808Z,93.08
2019-02-04T05:07:37.347Z,92.52
2019-02-04T05:08:35.984Z,93.27
2019-02-04T05:09:34.735Z,92.71
2019-02-04T05:10:33.386Z,93.18
2019-02-04T05:11:31.831Z,92.9
2019-02-04T05:12:30.370Z,92.61
2019-02-04T05:13:28.887Z,92.85
2019-02-04T05:14:27.445Z,92.71
2019-02-04T05:15:26.056Z,92.8
2019-02-04T05:16:24.732Z,92.9
2019-02-04T05:17:23.284Z,92.14
2019-02-04T05:18:21.853Z,91.66
2019-02-04T05:19:20.426Z,92.23
2019-02-04T05:20:18.992Z,92.9
2019-02-04T05:21:17.726Z,93.04
2019-02-04T05:22:16.391Z,93.42
2019-02-04T05:23:17.209Z,93.32
2019-02-04T05:24:13.498Z,93.37
2019-02-04T05:25:12.068Z,92.61
2019-02-04T05:26:10.611Z,92.52
2019-02-04T05:27:09.172Z,92.23
2019-02-04T05:28:07.922Z,92.14
2019-02-04T05:29:06.541Z,92.14
2019-02-04T05:30:05.100Z,92.23
2019-02-04T05:31:03.640Z,91.66
2019-02-04T05:32:02.397Z,91.76
2019-02-04T05:33:00.955Z,92.14
2019-02-04T05:33:59.609Z,92.14
2019-02-04T05:34:58.170Z,91.95
2019-02-04T05:35:56.735Z,92.71
2019-02-04T05:36:55.252Z,92.8
2019-02-04T05:37:53.789Z,92.99
2019-02-04T05:38:52.329Z,92.94
2019-02-04T05:39:50.863Z,93.51
2019-02-04T05:40:49.449Z,94.27
2019-02-04T05:41:48.031Z,94.37
2019-02-04T05:42:46.809Z,94.37
2019-02-04T05:43:45.206Z,94.37
2019-02-04T05:44:43.857Z,94.27
2019-02-04T05:45:42.558Z,94.56
2019-02-04T05:46:41.175Z,94.65
2019-02-04T05:47:39.754Z,94.84
2019-02-04T05:48:48.736Z,94.84
2019-02-04T05:49:36.898Z,94.74
2019-02-04T05:50:35.481Z,94.46
2019-02-04T05:51:34.046Z,94.08
2019-02-04T05:52:32.608Z,93.94
2019-02-04T05:53:31.147Z,93.27
2019-02-04T05:54:29.952Z,93.27
2019-02-04T05:55:30.477Z,93.23
2019-02-04T05:56:27.181Z,93.46
2019-02-04T05:57:25.815Z,93.37
2019-02-04T05:58:24.512Z,93.61
2019-02-04T05:59:23.071Z,94.18
2019-02-04T06:00:21.627Z,94.27
2019-02-04T06:01:20.168Z,94.18
2019-02-04T06:03:20.806Z,94.74
2019-02-04T06:04:19.376Z,94.65
2019-02-04T06:05:17.930Z,95.22
2019-02-04T06:06:16.568Z,94.84
2019-02-04T06:07:15.415Z,95.41
2019-02-04T06:08:13.682Z,95.31
2019-02-04T06:09:12.222Z,95.79
2019-02-04T06:10:10.775Z,96.64
2019-02-04T06:11:09.343Z,96.83
2019-02-04T06:12:08.154Z,97.02
2019-02-04T06:13:06.725Z,97.02
2019-02-04T06:14:05.260Z,96.64
2019-02-04T06:15:03.778Z,96.55
2019-02-04T06:16:02.453Z,96.26
2019-02-04T06:17:01.005Z,95.88
2019-02-04T06:17:59.604Z,95.79
2019-02-04T06:19:00.654Z,95.6
2019-02-04T06:19:56.791Z,95.79
2019-02-04T06:20:55.327Z,95.79
2019-02-04T06:21:53.866Z,96.26
2019-02-04T06:22:52.467Z,96.36
2019-02-04T06:23:51.009Z,96.55
2019-02-04T06:24:49.549Z,96.64
2019-02-04T06:25:48.108Z,97.4
2019-02-04T06:26:46.746Z,98.44
2019-02-04T06:27:45.354Z,98.63
2019-02-04T06:28:43.971Z,99.39
2019-02-04T06:29:42.546Z,99.67
2019-02-04T06:30:41.072Z,99.72
2019-02-04T06:31:39.616Z,99.53
2019-02-04T06:32:38.355Z,99.25
2019-02-04T06:33:36.951Z,99.25
2019-02-04T06:34:35.486Z,99.25
2019-02-04T06:35:34.040Z,98.96
2019-02-04T06:36:32.700Z,99.53
2019-02-04T06:37:31.253Z,99.99
2019-02-04T06:40:11.571Z,99.99
2019-02-04T06:42:11.359Z,99.99
2019-02-04T06:46:34.994Z,99.99
2019-02-04T06:47:33.560Z,99.99
2019-02-04T06:48:32.213Z,99.99
2019-02-04T06:49:30.836Z,99.99
2019-02-04T06:50:29.432Z,99.99
2019-02-04T06:51:28.065Z,99.99
2019-02-04T06:52:26.677Z,99.91
2019-02-04T06:53:25.269Z,97.16
2019-02-04T06:54:23.950Z,95.74
2019-02-04T06:55:22.643Z,96.97
2019-02-04T06:56:21.195Z,99.44
2019-02-04T06:57:19.838Z,99.99
2019-02-04T06:58:18.574Z,99.99
2019-02-04T06:59:17.141Z,99.99
2019-02-04T07:00:15.657Z,99.99
2019-02-04T07:01:14.216Z,97.64
2019-02-04T07:02:12.759Z,96.73
2019-02-04T07:03:11.318Z,96.78
2019-02-04T07:04:09.959Z,97.97
2019-02-04T07:05:09.361Z,99.99
2019-02-04T07:06:08.120Z,99.99
2019-02-04T07:07:06.808Z,99.99
2019-02-04T07:08:05.372Z,99.99
2019-02-04T07:09:03.901Z,99.99
2019-02-04T07:10:02.476Z,99.99
2019-02-04T07:11:01.040Z,99.99
2019-02-04T07:11:59.622Z,99.99
2019-02-04T07:12:58.266Z,99.99
2019-02-04T07:13:56.840Z,99.99
2019-02-04T07:14:55.359Z,99.99
2019-02-04T07:15:53.920Z,99.99
2019-02-04T07:16:52.511Z,99.99
2019-02-04T07:17:51.067Z,99.99
2019-02-04T07:18:49.619Z,99.99
2019-02-04T07:19:48.287Z,99.99
2019-02-04T07:20:46.844Z,99.99
2019-02-04T07:21:45.392Z,99.99
2019-02-04T07:22:44.224Z,99.99
2019-02-04T07:23:42.926Z,99.99
2019-02-04T07:24:43.018Z,99.99
2019-02-04T07:25:40.347Z,99.99
2019-02-04T07:26:38.892Z,99.99
2019-02-04T07:27:37.512Z,99.99
2019-02-04T07:28:36.316Z,99.99
2019-02-04T07:29:34.936Z,99.99
2019-02-04T07:30:33.577Z,99.99
2019-02-04T07:31:32.026Z,99.99
2019-02-04T07:32:30.620Z,99.99
2019-02-04T07:33:29.170Z,99.99
2019-02-04T07:34:27.757Z,99.99
2019-02-04T07:35:26.328Z,99.99
2019-02-04T07:36:25.492Z,99.99
2019-02-04T07:37:24.150Z,99.99
2019-02-04T07:38:22.703Z,99.99
2019-02-04T07:39:21.259Z,99.99
2019-02-04T07:40:19.844Z,99.99
2019-02-04T07:41:18.548Z,99.99
2019-02-04T07:42:17.108Z,99.99
2019-02-04T07:43:15.748Z,99.99
2019-02-04T07:44:14.582Z,99.99
2019-02-04T07:45:13.143Z,99.99
2019-02-04T07:46:11.686Z,99.99
2019-02-04T07:47:10.322Z,99.99
2019-02-04T07:48:08.914Z,99.99
2019-02-04T07:49:07.508Z,99.99
2019-02-04T07:50:06.270Z,99.99
2019-02-04T07:51:04.955Z,99.99
2019-02-04T07:52:03.382Z,99.99
2019-02-04T07:53:02.099Z,99.99
2019-02-04T07:54:00.668Z,99.99
2019-02-04T07:54:59.231Z,99.99
2019-02-04T07:55:57.798Z,99.99
2019-02-04T07:56:56.488Z,99.99
2019-02-04T07:57:57.118Z,99.99
2019-02-04T07:58:53.566Z,99.99
2019-02-04T07:59:52.089Z,99.99
2019-02-04T08:00:50.638Z,99.99
2019-02-04T08:01:49.304Z,99.99
2019-02-04T08:02:47.981Z,99.99
2019-02-04T08:03:46.589Z,99.99
2019-02-04T08:04:45.345Z,99.99
2019-02-04T08:05:44.041Z,99.99
2019-02-04T08:06:42.623Z,99.99
2019-02-04T08:07:41.193Z,99.99
2019-02-04T08:08:39.768Z,99.99
2019-02-04T08:09:38.386Z,99.99
2019-02-04T08:10:36.903Z,99.99
2019-02-04T08:11:35.476Z,99.99
2019-02-04T08:12:34.233Z,99.99
2019-02-04T08:13:32.863Z,99.99
2019-02-04T08:14:31.417Z,99.99
2019-02-04T08:15:30.022Z,99.99
2019-02-04T08:16:28.661Z,99.99
2019-02-04T08:17:27.406Z,99.99
2019-02-04T08:18:26.298Z,99.99
2019-02-04T08:19:25.390Z,99.99
2019-02-04T08:20:24.371Z,99.99
2019-02-04T08:21:23.007Z,99.99
2019-02-04T08:22:21.567Z,99.99
2019-02-04T08:23:20.175Z,99.99
2019-02-04T08:24:18.851Z,99.99
2019-02-04T08:25:17.403Z,99.99
2019-02-04T08:26:15.940Z,99.99
2019-02-04T08:27:14.488Z,99.99
2019-02-04T08:28:13.036Z,99.99
2019-02-04T08:29:11.735Z,99.99
2019-02-04T08:30:10.410Z,99.99
2019-02-04T08:31:08.956Z,99.99
2019-02-04T08:32:07.520Z,99.99
2019-02-04T08:33:06.133Z,99.99
2019-02-04T08:34:04.728Z,99.99
2019-02-04T08:35:03.291Z,99.99
2019-02-04T08:36:01.965Z,99.99
2019-02-04T08:37:00.593Z,99.99
2019-02-04T08:37:59.170Z,99.99
2019-02-04T08:38:57.704Z,99.99
2019-02-04T08:39:56.221Z,99.99
2019-02-04T08:40:54.808Z,99.99
2019-02-04T08:41:53.379Z,99.99
2019-02-04T08:42:52.075Z,99.99
2019-02-04T08:43:50.644Z,99.99
2019-02-04T08:44:49.228Z,99.99
2019-02-04T08:45:47.817Z,99.99
2019-02-04T08:46:46.564Z,99.99
2019-02-04T08:47:45.124Z,99.99
2019-02-04T08:48:43.683Z,99.99
2019-02-04T08:49:42.326Z,99.99
2019-02-04T08:50:40.968Z,99.99
2019-02-04T08:51:39.517Z,99.99
2019-02-04T08:52:38.248Z,99.99
2019-02-04T08:53:36.836Z,99.99
2019-02-04T08:54:35.385Z,99.99
2019-02-04T08:55:33.967Z,99.99
2019-02-04T08:56:32.507Z,99.99
2019-02-04T08:57:31.067Z,99.99
2019-02-04T08:58:29.659Z,99.99
2019-02-04T08:59:28.419Z,99.99
2019-02-04T09:00:26.989Z,99.99
2019-02-04T09:01:25.504Z,99.99
2019-02-04T09:02:24.117Z,99.99
2019-02-04T09:03:22.628Z,99.99
2019-02-04T09:04:21.173Z,99.99
2019-02-04T09:05:19.737Z,99.99
2019-02-04T09:06:18.508Z,99.99
2019-02-04T09:07:17.024Z,99.99
2019-02-04T09:08:15.595Z,99.99
2019-02-04T09:09:14.434Z,99.99
2019-02-04T09:10:14.867Z,99.99
2019-02-04T09:11:11.546Z,99.99
2019-02-04T09:12:10.171Z,99.99
2019-02-04T09:13:08.701Z,99.99
2019-02-04T09:14:07.263Z,99.99
2019-02-04T09:15:05.822Z,99.99
2019-02-04T09:16:04.344Z,99.99
2019-02-04T09:17:02.908Z,99.99
2019-02-04T09:18:01.414Z,99.99
2019-02-04T09:18:59.950Z,99.99
2019-02-04T09:20:09.375Z,99.99
2019-02-04T09:20:57.051Z,99.99
2019-02-04T09:21:55.541Z,99.99
2019-02-04T09:22:54.384Z,99.99
2019-02-04T09:23:52.990Z,99.99
2019-02-04T09:24:51.527Z,99.99
2019-02-04T09:25:50.245Z,99.99
2019-02-04T09:26:48.971Z,99.99
2019-02-04T09:27:47.551Z,99.99
2019-02-04T09:28:46.167Z,99.99
2019-02-04T09:29:44.839Z,99.99
2019-02-04T09:30:43.439Z,99.99
2019-02-04T09:31:42.083Z,99.99
2019-02-04T09:32:40.656Z,99.99
2019-02-04T09:33:39.256Z,99.99
2019-02-04T09:34:37.920Z,99.99
2019-02-04T09:35:36.605Z,99.99
2019-02-04T09:36:35.150Z,99.99
2019-02-04T09:37:33.715Z,99.99
2019-02-04T09:38:32.253Z,99.99
2019-02-04T09:39:30.784Z,99.99
2019-02-04T09:40:29.390Z,99.99
2019-02-04T09:41:27.949Z,99.99
2019-02-04T09:42:26.552Z,99.99
2019-02-04T09:43:25.076Z,99.99
2019-02-04T09:44:23.649Z,99.99
2019-02-04T09:45:25.264Z,99.99
2019-02-04T09:46:20.959Z,99.99
2019-02-04T09:47:19.521Z,99.99
2019-02-04T09:48:18.055Z,99.99
2019-02-04T09:49:16.816Z,99.99
2019-02-04T09:50:21.575Z,99.11
2019-02-04T09:51:13.914Z,96.36
2019-02-04T09:52:12.453Z,97.6
2019-02-04T09:53:10.983Z,97.07
2019-02-04T09:54:09.554Z,97.22
2019-02-04T09:55:08.154Z,98.45
2019-02-04T09:56:06.710Z,97.74
2019-02-04T09:57:05.244Z,96.98
2019-02-04T09:58:03.797Z,94.23
2019-02-04T09:59:02.387Z,93.94
2019-02-04T10:01:42.834Z,88.34
2019-02-04T10:02:41.358Z,87.57
2019-02-04T10:03:39.919Z,86.34
2019-02-04T10:04:38.506Z,86.29
2019-02-04T10:05:37.078Z,89.14
2019-02-04T10:06:35.603Z,91.71
2019-02-04T10:07:34.158Z,92.08
2019-02-04T10:08:32.705Z,91.52
2019-02-04T10:09:31.278Z,92.18
2019-02-04T10:31:57.729Z,88.95
2019-02-04T10:32:56.459Z,85.05
2019-02-04T10:33:54.986Z,81.92
2019-02-04T10:34:53.562Z,84.43
2019-02-04T10:35:52.102Z,84.52
2019-02-04T10:36:50.675Z,81.38
2019-02-04T10:37:49.241Z,81.1
2019-02-04T10:38:47.866Z,81.67
2019-02-04T10:39:46.524Z,83.48
2019-02-04T10:40:45.072Z,86.52
2019-02-04T10:41:43.605Z,85.1
2019-02-04T10:42:42.452Z,82.71
2019-02-04T10:43:41.096Z,82.15
2019-02-04T10:44:39.591Z,84.33
2019-02-04T10:45:38.186Z,82.91
2019-02-04T10:46:36.774Z,84.14
2019-02-04T10:47:35.371Z,83.1
2019-02-04T10:48:34.053Z,81.2
2019-02-04T10:49:32.581Z,81.2
2019-02-04T10:50:31.067Z,81.01
2019-02-04T10:51:29.696Z,83.58
2019-02-04T10:52:28.288Z,85.1
2019-02-04T10:53:26.942Z,85
2019-02-04T10:54:25.513Z,86.14
2019-02-04T10:55:24.174Z,85.99
2019-02-04T10:56:22.860Z,94.65
2019-02-04T10:57:21.412Z,93.23
2019-02-04T10:58:20.062Z,89.42
2019-02-04T10:59:18.567Z,92.99
2019-02-04T11:00:17.098Z,93.37
2019-02-04T11:01:15.656Z,87.66
2019-02-04T11:02:14.192Z,83.58
2019-02-04T11:03:12.736Z,81.01
2019-02-04T11:04:11.310Z,82.48
2019-02-04T11:05:09.845Z,81.38
2019-02-04T11:06:08.565Z,81.29
2019-02-04T11:07:07.218Z,78.77
2019-02-04T11:08:05.924Z,77.58
2019-02-04T11:09:04.622Z,77.11
2019-02-04T11:10:03.170Z,79.62
2019-02-04T11:11:01.702Z,79.81
2019-02-04T11:12:00.316Z,79.01
2019-02-04T11:12:58.881Z,78.77
2019-02-04T11:13:57.389Z,78.34
2019-02-04T11:14:56.195Z,77.68
2019-02-04T11:15:54.916Z,76.92
2019-02-04T11:16:53.492Z,76.82
2019-02-04T11:17:52.230Z,77.49
2019-02-04T11:18:50.662Z,77.01
2019-02-04T11:19:49.198Z,77.2
2019-02-04T11:20:57.394Z,76.16
2019-02-04T11:21:46.341Z,75.11
2019-02-04T11:22:44.908Z,72.55
2019-02-04T11:23:43.505Z,71.97
2019-02-04T11:24:42.042Z,71.59
2019-02-04T11:25:40.757Z,68.65
2019-02-04T11:26:39.290Z,69.5
2019-02-04T11:27:37.991Z,69.5
2019-02-04T11:28:36.730Z,69.02
2019-02-04T11:29:35.274Z,70.17
2019-02-04T11:30:33.842Z,70.93
2019-02-04T11:31:32.490Z,71.22
2019-02-04T11:32:31.032Z,70.74
2019-02-04T11:33:29.989Z,69.5
2019-02-04T11:34:28.592Z,68.07
2019-02-04T11:35:27.094Z,67.44
2019-02-04T11:36:26.267Z,67.73
2019-02-04T11:37:24.870Z,67.44
2019-02-04T11:38:23.396Z,66.87
2019-02-04T11:39:22.068Z,65.54
2019-02-04T11:40:20.743Z,64.69
2019-02-04T11:41:19.323Z,64.87
2019-02-04T11:42:17.981Z,64.31
2019-02-04T11:43:16.619Z,63.54
2019-02-04T11:44:15.230Z,62.21
2019-02-04T11:45:14.063Z,61.83
2019-02-04T11:46:13.023Z,62.02
2019-02-04T11:47:11.541Z,62.4
2019-02-04T11:48:10.166Z,63.26
2019-02-04T11:49:08.724Z,63.45
2019-02-04T11:50:07.277Z,62.3
2019-02-04T11:51:09.501Z,61.45
2019-02-04T11:52:04.748Z,61.74
2019-02-04T11:53:03.333Z,62.4
2019-02-04T11:54:01.878Z,61.83
2019-02-04T11:55:00.648Z,62.49
2019-02-04T11:55:59.245Z,61.74
2019-02-04T11:56:57.801Z,61.16
2019-02-04T11:57:56.392Z,61.93
2019-02-04T11:58:54.961Z,61.64
2019-02-04T11:59:53.520Z,61.45
2019-02-04T12:00:52.400Z,61.07
2019-02-04T12:01:50.997Z,61.16
2019-02-04T12:02:49.569Z,61.16
2019-02-04T12:03:48.246Z,60.97
2019-02-04T12:04:46.991Z,60.97
2019-02-04T12:05:46.523Z,60.88
2019-02-04T12:06:44.991Z,61.19
2019-02-04T12:07:43.571Z,61.64
2019-02-04T12:08:42.098Z,62.34
2019-02-04T12:09:40.795Z,61.74
2019-02-04T12:10:39.337Z,61.74
2019-02-04T12:11:38.024Z,62.02
2019-02-04T12:12:36.738Z,62.4
2019-02-04T12:13:35.282Z,62.4
2019-02-04T12:14:33.893Z,61.74
2019-02-04T12:15:32.606Z,62.02
2019-02-04T12:16:31.141Z,62.21
2019-02-04T12:17:29.713Z,62.4
2019-02-04T12:18:28.292Z,62.21
2019-02-04T12:19:26.879Z,61.74
2019-02-04T12:20:25.423Z,61.16
2019-02-04T12:21:24.124Z,61.35
2019-02-04T12:22:22.722Z,62.3
2019-02-04T12:23:21.282Z,61.74
2019-02-04T12:24:19.817Z,61.86
2019-02-04T12:25:18.514Z,60.63
2019-02-04T12:26:17.072Z,61
2019-02-04T12:27:15.622Z,61
2019-02-04T12:28:14.343Z,60.34
2019-02-04T12:29:12.922Z,60.44
2019-02-04T12:30:11.462Z,60.91
2019-02-04T12:31:10.037Z,60.6
2019-02-04T12:32:08.718Z,59.55
2019-02-04T12:33:07.303Z,59.55
2019-02-04T12:34:05.969Z,60.24
2019-02-04T12:35:04.648Z,59.86
2019-02-04T12:36:03.276Z,59.55
2019-02-04T12:37:01.803Z,59.67
2019-02-04T12:38:00.541Z,60.15
2019-02-04T12:38:59.159Z,59.29
2019-02-04T12:39:57.743Z,59.67
2019-02-04T12:40:56.491Z,60.53
2019-02-04T12:41:55.115Z,59.67
2019-02-04T12:42:53.639Z,59.77
2019-02-04T12:43:52.416Z,59.2
2019-02-04T12:44:51.092Z,58.81
2019-02-04T12:45:49.629Z,58.72
2019-02-04T12:46:48.171Z,58.81
2019-02-04T12:47:46.727Z,58.72
2019-02-04T12:48:45.278Z,58.98
2019-02-04T12:49:43.836Z,59.45
2019-02-04T12:50:42.602Z,59.55
2019-02-04T12:51:41.184Z,60.6
2019-02-04T12:52:39.729Z,60.12
2019-02-04T12:53:38.335Z,60.21
2019-02-04T12:54:37.009Z,59.27
2019-02-04T12:55:35.614Z,59.55
2019-02-04T12:56:34.279Z,59.64
2019-02-04T12:57:32.853Z,59.55
2019-02-04T12:58:31.434Z,59.07
2019-02-04T12:59:29.972Z,58.72
2019-02-04T13:00:28.518Z,58.4
2019-02-04T13:01:27.087Z,58.4
2019-02-04T13:02:25.665Z,58.69
2019-02-04T13:03:24.396Z,58.79
2019-02-04T13:04:22.957Z,58.98
2019-02-04T13:05:21.617Z,58.31
2019-02-04T13:06:20.231Z,58.88
2019-02-04T13:07:18.893Z,58.22
2019-02-04T13:08:17.480Z,58.22